sensor_id;sensor_type;location;lat;lon;timestamp;pressure;altitude;pressure_sealevel;temperature;humidity
13767;BME280;47980;48.794;9.176;2023-02-12T00:00:51;100216.59;;;7.06;81.63
13767;BME280;47980;48.794;9.176;2023-02-12T00:03:22;100216.41;;;7.12;80.50
13767;BME280;47980;48.794;9.176;2023-02-12T00:05:54;100211.97;;;7.18;80.86
13767;BME280;47980;48.794;9.176;2023-02-12T00:08:25;100208.31;;;7.19;79.28
13767;BME280;47980;48.794;9.176;2023-02-12T00:10:58;100210.13;;;7.18;80.00
13767;BME280;47980;48.794;9.176;2023-02-12T00:13:30;100210.69;;;7.20;78.05
13767;BME280;47980;48.794;9.176;2023-02-12T00:16:04;100217.44;;;7.11;78.58
13767;BME280;47980;48.794;9.176;2023-02-12T00:18:36;100216.41;;;7.12;79.66
13767;BME280;47980;48.794;9.176;2023-02-12T00:21:07;100220.78;;;7.29;77.76
13767;BME280;47980;48.794;9.176;2023-02-12T00:23:39;100221.72;;;7.17;78.97
13767;BME280;47980;48.794;9.176;2023-02-12T00:26:15;100226.66;;;7.36;78.65
13767;BME280;47980;48.794;9.176;2023-02-12T00:28:46;100220.03;;;7.33;78.13
13767;BME280;47980;48.794;9.176;2023-02-12T00:31:21;100221.47;;;7.46;77.83
13767;BME280;47980;48.794;9.176;2023-02-12T00:33:53;100216.53;;;7.55;76.39
13767;BME280;47980;48.794;9.176;2023-02-12T00:36:28;100223.91;;;7.53;77.23
13767;BME280;47980;48.794;9.176;2023-02-12T00:39:00;100224.38;;;7.44;76.97
13767;BME280;47980;48.794;9.176;2023-02-12T00:41:32;100222.63;;;7.28;77.41
13767;BME280;47980;48.794;9.176;2023-02-12T00:44:04;100227.56;;;7.19;78.10
13767;BME280;47980;48.794;9.176;2023-02-12T00:46:35;100239.75;;;6.98;79.18
13767;BME280;47980;48.794;9.176;2023-02-12T00:49:07;100237.56;;;7.17;79.34
13767;BME280;47980;48.794;9.176;2023-02-12T00:51:39;100234.88;;;7.39;76.68
13767;BME280;47980;48.794;9.176;2023-02-12T00:54:10;100241.41;;;7.05;78.01
13767;BME280;47980;48.794;9.176;2023-02-12T00:56:43;100244.69;;;7.17;80.19
13767;BME280;47980;48.794;9.176;2023-02-12T00:59:15;100244.53;;;7.29;78.27
13767;BME280;47980;48.794;9.176;2023-02-12T01:01:46;100227.38;;;7.04;77.82
13767;BME280;47980;48.794;9.176;2023-02-12T01:04:18;100240.97;;;6.91;81.32
13767;BME280;47980;48.794;9.176;2023-02-12T01:06:49;100228.88;;;6.95;80.74
13767;BME280;47980;48.794;9.176;2023-02-12T01:09:21;100237.03;;;6.93;81.85
13767;BME280;47980;48.794;9.176;2023-02-12T01:11:54;100231.72;;;6.88;81.32
13767;BME280;47980;48.794;9.176;2023-02-12T01:14:25;100230.66;;;6.89;81.42
13767;BME280;47980;48.794;9.176;2023-02-12T01:16:57;100240.50;;;6.94;80.98
13767;BME280;47980;48.794;9.176;2023-02-12T01:19:28;100240.50;;;6.94;82.38
13767;BME280;47980;48.794;9.176;2023-02-12T01:22:00;100240.41;;;6.89;82.30
13767;BME280;47980;48.794;9.176;2023-02-12T01:24:31;100242.25;;;6.88;82.66
13767;BME280;47980;48.794;9.176;2023-02-12T01:27:04;100233.06;;;6.91;81.77
13767;BME280;47980;48.794;9.176;2023-02-12T01:29:36;100229.41;;;6.97;82.42
13767;BME280;47980;48.794;9.176;2023-02-12T01:32:09;100230.78;;;6.99;81.57
13767;BME280;47980;48.794;9.176;2023-02-12T01:34:40;100227.50;;;6.87;81.49
13767;BME280;47980;48.794;9.176;2023-02-12T01:37:12;100229.63;;;6.90;81.31
13767;BME280;47980;48.794;9.176;2023-02-12T01:39:43;100235.03;;;6.79;81.54
13767;BME280;47980;48.794;9.176;2023-02-12T01:42:16;100230.63;;;6.84;82.05
13767;BME280;47980;48.794;9.176;2023-02-12T01:47:53;100223.25;;;6.64;82.40
13767;BME280;47980;48.794;9.176;2023-02-12T01:50:26;100223.31;;;6.91;81.27
13767;BME280;47980;48.794;9.176;2023-02-12T01:52:58;100222.28;;;6.70;81.66
13767;BME280;47980;48.794;9.176;2023-02-12T01:55:29;100216.34;;;6.58;82.23
13767;BME280;47980;48.794;9.176;2023-02-12T01:58:03;100216.03;;;6.55;83.25
13767;BME280;47980;48.794;9.176;2023-02-12T02:00:35;100216.19;;;6.70;82.84
13767;BME280;47980;48.794;9.176;2023-02-12T02:03:06;100220.69;;;6.69;82.03
13767;BME280;47980;48.794;9.176;2023-02-12T02:05:42;100225.09;;;6.64;83.94
13767;BME280;47980;48.794;9.176;2023-02-12T02:08:17;100218.47;;;6.61;83.09
13767;BME280;47980;48.794;9.176;2023-02-12T02:10:48;100217.25;;;6.91;81.49
13767;BME280;47980;48.794;9.176;2023-02-12T02:13:21;100215.47;;;6.74;81.87
13767;BME280;47980;48.794;9.176;2023-02-12T02:16:15;100218.38;;;7.00;81.04
13767;BME280;47980;48.794;9.176;2023-02-12T02:18:52;100218.41;;;6.78;81.50
13767;BME280;47980;48.794;9.176;2023-02-12T02:21:46;100215.72;;;6.73;84.08
13767;BME280;47980;48.794;9.176;2023-02-12T02:24:41;100208.16;;;6.82;83.77
13767;BME280;47980;48.794;9.176;2023-02-12T02:27:21;100203.66;;;6.82;82.26
13767;BME280;47980;48.794;9.176;2023-02-12T02:30:34;100205.59;;;6.65;83.05
13767;BME280;47980;48.794;9.176;2023-02-12T02:33:21;100198.53;;;6.48;81.73
13767;BME280;47980;48.794;9.176;2023-02-12T02:36:07;100202.59;;;6.56;80.38
13767;BME280;47980;48.794;9.176;2023-02-12T02:38:45;100202.34;;;6.58;80.38
13767;BME280;47980;48.794;9.176;2023-02-12T02:41:26;100197.72;;;6.26;81.60
13767;BME280;47980;48.794;9.176;2023-02-12T02:44:02;100194.94;;;6.16;83.37
13767;BME280;47980;48.794;9.176;2023-02-12T02:46:41;100206.56;;;6.37;80.76
13767;BME280;47980;48.794;9.176;2023-02-12T02:49:17;100203.13;;;6.36;80.64
13767;BME280;47980;48.794;9.176;2023-02-12T02:51:53;100198.72;;;6.42;81.86
13767;BME280;47980;48.794;9.176;2023-02-12T02:54:35;100204.38;;;6.50;81.86
13767;BME280;47980;48.794;9.176;2023-02-12T02:57:11;100201.44;;;6.69;79.92
13767;BME280;47980;48.794;9.176;2023-02-12T02:59:47;100199.63;;;6.53;80.56
13767;BME280;47980;48.794;9.176;2023-02-12T03:02:24;100192.81;;;6.79;79.48
13767;BME280;47980;48.794;9.176;2023-02-12T03:05:00;100194.28;;;6.91;78.75
13767;BME280;47980;48.794;9.176;2023-02-12T03:07:35;100194.91;;;6.77;77.26
13767;BME280;47980;48.794;9.176;2023-02-12T03:10:12;100196.19;;;6.74;78.79
13767;BME280;47980;48.794;9.176;2023-02-12T03:12:51;100201.72;;;6.94;78.33
13767;BME280;47980;48.794;9.176;2023-02-12T03:15:28;100207.00;;;6.72;79.24
13767;BME280;47980;48.794;9.176;2023-02-12T03:18:06;100197.44;;;6.66;79.99
13767;BME280;47980;48.794;9.176;2023-02-12T03:20:42;100200.63;;;6.68;78.22
13767;BME280;47980;48.794;9.176;2023-02-12T03:23:19;100210.50;;;6.56;79.45
13767;BME280;47980;48.794;9.176;2023-02-12T03:25:56;100208.59;;;6.73;78.70
13767;BME280;47980;48.794;9.176;2023-02-12T03:28:30;100214.09;;;6.94;78.47
13767;BME280;47980;48.794;9.176;2023-02-12T03:31:07;100212.06;;;7.01;78.45
13767;BME280;47980;48.794;9.176;2023-02-12T03:33:48;100212.72;;;6.86;77.68
13767;BME280;47980;48.794;9.176;2023-02-12T03:36:30;100211.53;;;6.55;79.42
13767;BME280;47980;48.794;9.176;2023-02-12T03:39:09;100198.66;;;6.59;80.80
13767;BME280;47980;48.794;9.176;2023-02-12T03:41:45;100207.84;;;6.56;80.13
13767;BME280;47980;48.794;9.176;2023-02-12T03:44:24;100198.66;;;6.59;80.21
13767;BME280;47980;48.794;9.176;2023-02-12T03:47:03;100199.72;;;6.58;80.83
13767;BME280;47980;48.794;9.176;2023-02-12T03:49:46;100197.38;;;6.61;81.26
13767;BME280;47980;48.794;9.176;2023-02-12T03:52:21;100207.84;;;6.56;81.57
13767;BME280;47980;48.794;9.176;2023-02-12T03:54:53;100217.44;;;6.62;80.64
13767;BME280;47980;48.794;9.176;2023-02-12T03:57:28;100214.19;;;6.55;80.24
13767;BME280;47980;48.794;9.176;2023-02-12T04:00:04;100210.97;;;6.53;80.99
13767;BME280;47980;48.794;9.176;2023-02-12T04:02:36;100218.03;;;6.69;80.91
13767;BME280;47980;48.794;9.176;2023-02-12T04:05:16;100221.00;;;7.00;79.25
13767;BME280;47980;48.794;9.176;2023-02-12T04:07:49;100216.78;;;6.72;78.64
13767;BME280;47980;48.794;9.176;2023-02-12T04:10:26;100214.31;;;6.65;80.08
13767;BME280;47980;48.794;9.176;2023-02-12T04:13:05;100216.50;;;6.73;80.19
13767;BME280;47980;48.794;9.176;2023-02-12T04:15:53;100214.91;;;6.72;79.55
13767;BME280;47980;48.794;9.176;2023-02-12T04:18:32;100223.63;;;6.73;79.03
13767;BME280;47980;48.794;9.176;2023-02-12T04:21:12;100221.44;;;6.65;80.11
13767;BME280;47980;48.794;9.176;2023-02-12T04:23:56;100225.03;;;6.37;80.41
13767;BME280;47980;48.794;9.176;2023-02-12T04:26:36;100225.53;;;6.17;82.15
13767;BME280;47980;48.794;9.176;2023-02-12T04:29:16;100237.28;;;6.09;81.70
13767;BME280;47980;48.794;9.176;2023-02-12T04:31:54;100227.78;;;6.47;78.68
13767;BME280;47980;48.794;9.176;2023-02-12T04:34:31;100237.47;;;6.41;80.09
13767;BME280;47980;48.794;9.176;2023-02-12T04:37:10;100240.25;;;6.35;79.93
13767;BME280;47980;48.794;9.176;2023-02-12T04:39:45;100242.41;;;6.38;80.73
13767;BME280;47980;48.794;9.176;2023-02-12T04:42:18;100239.56;;;6.39;79.58
13767;BME280;47980;48.794;9.176;2023-02-12T04:44:49;100242.25;;;6.44;79.89
13767;BME280;47980;48.794;9.176;2023-02-12T04:47:21;100239.31;;;6.41;79.30
13767;BME280;47980;48.794;9.176;2023-02-12T04:49:52;100245.75;;;6.50;78.63
13767;BME280;47980;48.794;9.176;2023-02-12T04:52:25;100253.91;;;6.32;80.37
13767;BME280;47980;48.794;9.176;2023-02-12T04:54:57;100250.78;;;5.96;81.08
13767;BME280;47980;48.794;9.176;2023-02-12T04:57:28;100243.84;;;6.07;79.79
13767;BME280;47980;48.794;9.176;2023-02-12T05:00:00;100249.88;;;6.24;80.18
13767;BME280;47980;48.794;9.176;2023-02-12T05:02:33;100244.13;;;6.27;80.09
13767;BME280;47980;48.794;9.176;2023-02-12T05:05:05;100244.72;;;6.51;78.23
13767;BME280;47980;48.794;9.176;2023-02-12T05:07:38;100246.59;;;6.34;78.23
13767;BME280;47980;48.794;9.176;2023-02-12T05:10:10;100247.88;;;6.53;75.23
13767;BME280;47980;48.794;9.176;2023-02-12T05:12:41;100241.72;;;6.25;76.65
13767;BME280;47980;48.794;9.176;2023-02-12T05:15:13;100241.47;;;6.27;77.62
13767;BME280;47980;48.794;9.176;2023-02-12T05:17:44;100240.53;;;6.33;77.31
13767;BME280;47980;48.794;9.176;2023-02-12T05:20:16;100237.91;;;6.16;78.55
13767;BME280;47980;48.794;9.176;2023-02-12T05:22:51;100240.00;;;5.97;79.01
13767;BME280;47980;48.794;9.176;2023-02-12T05:25:23;100234.47;;;6.16;80.08
13767;BME280;47980;48.794;9.176;2023-02-12T05:27:54;100235.59;;;6.20;77.78
13767;BME280;47980;48.794;9.176;2023-02-12T05:30:26;100232.53;;;6.28;78.20
13767;BME280;47980;48.794;9.176;2023-02-12T05:32:58;100243.75;;;6.18;79.15
13767;BME280;47980;48.794;9.176;2023-02-12T05:35:29;100236.94;;;6.22;78.04
13767;BME280;47980;48.794;9.176;2023-02-12T05:38:02;100235.34;;;6.21;79.01
13767;BME280;47980;48.794;9.176;2023-02-12T05:40:34;100240.53;;;6.16;79.09
13767;BME280;47980;48.794;9.176;2023-02-12T05:43:05;100238.00;;;6.21;78.74
13767;BME280;47980;48.794;9.176;2023-02-12T05:45:37;100242.91;;;6.35;79.26
13767;BME280;47980;48.794;9.176;2023-02-12T05:48:10;100234.97;;;6.51;76.78
13767;BME280;47980;48.794;9.176;2023-02-12T05:50:41;100237.34;;;6.53;76.87
13767;BME280;47980;48.794;9.176;2023-02-12T05:53:14;100246.16;;;6.42;77.84
13767;BME280;47980;48.794;9.176;2023-02-12T05:55:46;100244.13;;;6.27;79.04
13767;BME280;47980;48.794;9.176;2023-02-12T05:58:17;100248.75;;;6.20;79.36
13767;BME280;47980;48.794;9.176;2023-02-12T06:00:49;100246.75;;;6.27;79.09
13767;BME280;47980;48.794;9.176;2023-02-12T06:03:20;100247.00;;;6.25;80.52
13767;BME280;47980;48.794;9.176;2023-02-12T06:05:52;100237.31;;;6.31;79.51
13767;BME280;47980;48.794;9.176;2023-02-12T06:08:25;100247.31;;;6.29;79.33
13767;BME280;47980;48.794;9.176;2023-02-12T06:10:59;100250.44;;;6.26;80.28
13767;BME280;47980;48.794;9.176;2023-02-12T06:13:31;100242.75;;;6.24;79.72
13767;BME280;47980;48.794;9.176;2023-02-12T06:16:03;100240.84;;;6.20;80.47
13767;BME280;47980;48.794;9.176;2023-02-12T06:18:35;100246.22;;;6.08;81.94
13767;BME280;47980;48.794;9.176;2023-02-12T06:21:06;100248.44;;;6.16;80.94
13767;BME280;47980;48.794;9.176;2023-02-12T06:23:39;100248.44;;;6.16;80.70
13767;BME280;47980;48.794;9.176;2023-02-12T06:26:11;100244.69;;;6.12;80.14
13767;BME280;47980;48.794;9.176;2023-02-12T06:28:43;100248.13;;;6.13;80.24
13767;BME280;47980;48.794;9.176;2023-02-12T06:31:17;100252.75;;;6.22;80.08
13767;BME280;47980;48.794;9.176;2023-02-12T06:33:50;100244.22;;;6.32;80.54
13767;BME280;47980;48.794;9.176;2023-02-12T06:36:22;100245.56;;;6.57;79.37
13767;BME280;47980;48.794;9.176;2023-02-12T06:38:55;100256.38;;;6.55;76.30
13767;BME280;47980;48.794;9.176;2023-02-12T06:41:27;100268.25;;;6.36;77.77
13767;BME280;47980;48.794;9.176;2023-02-12T06:43:58;100272.63;;;6.30;80.02
13767;BME280;47980;48.794;9.176;2023-02-12T06:46:30;100273.19;;;6.32;77.81
13767;BME280;47980;48.794;9.176;2023-02-12T06:49:02;100277.59;;;6.26;78.38
13767;BME280;47980;48.794;9.176;2023-02-12T06:51:33;100272.88;;;6.29;80.15
13767;BME280;47980;48.794;9.176;2023-02-12T06:54:13;100277.78;;;6.42;78.11
13767;BME280;47980;48.794;9.176;2023-02-12T06:56:45;100273.84;;;6.61;78.35
13767;BME280;47980;48.794;9.176;2023-02-12T06:59:16;100280.88;;;6.56;77.35
13767;BME280;47980;48.794;9.176;2023-02-12T07:01:48;100273.44;;;6.69;77.26
13767;BME280;47980;48.794;9.176;2023-02-12T07:04:19;100281.78;;;6.61;77.26
13767;BME280;47980;48.794;9.176;2023-02-12T07:06:51;100280.28;;;6.92;75.90
13767;BME280;47980;48.794;9.176;2023-02-12T07:09:24;100285.09;;;6.95;76.08
13767;BME280;47980;48.794;9.176;2023-02-12T07:11:57;100278.53;;;6.98;73.77
13767;BME280;47980;48.794;9.176;2023-02-12T07:14:29;100283.34;;;6.62;76.34
13767;BME280;47980;48.794;9.176;2023-02-12T07:17:00;100290.41;;;6.79;75.84
13767;BME280;47980;48.794;9.176;2023-02-12T07:19:33;100280.84;;;6.94;76.16
13767;BME280;47980;48.794;9.176;2023-02-12T07:22:04;100281.34;;;6.91;74.74
13767;BME280;47980;48.794;9.176;2023-02-12T07:24:37;100300.44;;;6.98;75.14
13767;BME280;47980;48.794;9.176;2023-02-12T07:27:09;100275.81;;;6.71;75.63
13767;BME280;47980;48.794;9.176;2023-02-12T07:29:40;100286.22;;;6.61;77.28
13767;BME280;47980;48.794;9.176;2023-02-12T07:32:12;100286.78;;;6.63;76.00
13767;BME280;47980;48.794;9.176;2023-02-12T07:34:43;100286.31;;;6.66;76.98
13767;BME280;47980;48.794;9.176;2023-02-12T07:37:15;100290.91;;;6.54;77.32
13767;BME280;47980;48.794;9.176;2023-02-12T07:39:53;100288.53;;;6.57;76.47
13767;BME280;47980;48.794;9.176;2023-02-12T07:42:24;100292.28;;;6.39;76.45
13767;BME280;47980;48.794;9.176;2023-02-12T07:44:56;100291.66;;;6.32;78.06
13767;BME280;47980;48.794;9.176;2023-02-12T07:47:27;100299.75;;;6.47;77.87
13767;BME280;47980;48.794;9.176;2023-02-12T07:49:59;100280.97;;;7.05;75.06
13767;BME280;47980;48.794;9.176;2023-02-12T07:52:30;100284.31;;;6.56;76.81
13767;BME280;47980;48.794;9.176;2023-02-12T07:55:03;100291.75;;;6.59;77.83
13767;BME280;47980;48.794;9.176;2023-02-12T07:57:35;100290.66;;;6.99;74.71
13767;BME280;47980;48.794;9.176;2023-02-12T08:00:08;100286.50;;;6.81;74.77
13767;BME280;47980;48.794;9.176;2023-02-12T08:02:39;100284.34;;;6.78;75.33
13767;BME280;47980;48.794;9.176;2023-02-12T08:05:11;100287.91;;;6.89;75.77
13767;BME280;47980;48.794;9.176;2023-02-12T08:07:42;100283.66;;;6.66;76.57
13767;BME280;47980;48.794;9.176;2023-02-12T08:10:16;100276.41;;;7.00;74.32
13767;BME280;47980;48.794;9.176;2023-02-12T08:12:51;100280.38;;;6.97;75.01
13767;BME280;47980;48.794;9.176;2023-02-12T08:15:22;100287.84;;;7.06;74.94
13767;BME280;47980;48.794;9.176;2023-02-12T08:17:54;100276.63;;;7.42;72.93
13767;BME280;47980;48.794;9.176;2023-02-12T08:20:26;100276.63;;;7.15;73.46
13767;BME280;47980;48.794;9.176;2023-02-12T08:22:57;100279.19;;;7.10;74.54
13767;BME280;47980;48.794;9.176;2023-02-12T08:25:30;100282.19;;;7.19;74.51
13767;BME280;47980;48.794;9.176;2023-02-12T08:28:02;100264.25;;;7.21;72.33
13767;BME280;47980;48.794;9.176;2023-02-12T08:30:33;100278.16;;;7.38;74.11
13767;BME280;47980;48.794;9.176;2023-02-12T08:33:05;100275.22;;;7.62;73.04
13767;BME280;47980;48.794;9.176;2023-02-12T08:35:36;100274.41;;;7.61;72.40
13767;BME280;47980;48.794;9.176;2023-02-12T08:38:08;100279.88;;;7.50;72.89
13767;BME280;47980;48.794;9.176;2023-02-12T08:40:40;100280.69;;;7.55;72.05
13767;BME280;47980;48.794;9.176;2023-02-12T08:43:12;100275.47;;;7.60;72.16
13767;BME280;47980;48.794;9.176;2023-02-12T08:45:43;100277.72;;;7.74;72.52
13767;BME280;47980;48.794;9.176;2023-02-12T08:48:15;100282.69;;;7.43;74.73
13767;BME280;47980;48.794;9.176;2023-02-12T08:50:46;100279.38;;;7.53;73.75
13767;BME280;47980;48.794;9.176;2023-02-12T08:53:18;100280.38;;;7.79;72.72
13767;BME280;47980;48.794;9.176;2023-02-12T08:55:51;100285.91;;;8.09;72.59
13767;BME280;47980;48.794;9.176;2023-02-12T08:58:22;100280.50;;;8.31;71.47
13767;BME280;47980;48.794;9.176;2023-02-12T09:00:54;100275.88;;;8.11;71.95
13767;BME280;47980;48.794;9.176;2023-02-12T09:03:25;100286.78;;;8.20;70.97
13767;BME280;47980;48.794;9.176;2023-02-12T09:05:57;100293.50;;;8.01;72.25
13767;BME280;47980;48.794;9.176;2023-02-12T09:08:28;100285.09;;;8.09;72.06
13767;BME280;47980;48.794;9.176;2023-02-12T09:11:05;100292.66;;;7.95;72.54
13767;BME280;47980;48.794;9.176;2023-02-12T09:13:38;100286.47;;;8.49;69.21
13767;BME280;47980;48.794;9.176;2023-02-12T09:16:10;100297.94;;;8.70;68.55
13767;BME280;47980;48.794;9.176;2023-02-12T09:18:42;100290.44;;;8.14;70.13
13767;BME280;47980;48.794;9.176;2023-02-12T09:21:15;100294.16;;;8.50;68.63
13767;BME280;47980;48.794;9.176;2023-02-12T09:23:47;100289.28;;;8.00;70.63
13767;BME280;47980;48.794;9.176;2023-02-12T09:26:21;100288.38;;;8.21;70.23
13767;BME280;47980;48.794;9.176;2023-02-12T09:28:55;100284.13;;;8.20;71.22
13767;BME280;47980;48.794;9.176;2023-02-12T09:31:28;100277.31;;;8.29;70.43
13767;BME280;47980;48.794;9.176;2023-02-12T09:34:03;100290.88;;;8.38;70.86
13767;BME280;47980;48.794;9.176;2023-02-12T09:36:34;100289.28;;;8.89;70.68
13767;BME280;47980;48.794;9.176;2023-02-12T09:39:06;100282.19;;;9.00;70.17
13767;BME280;47980;48.794;9.176;2023-02-12T09:41:50;100284.91;;;9.26;69.29
13767;BME280;47980;48.794;9.176;2023-02-12T09:44:34;100295.53;;;9.31;68.19
13767;BME280;47980;48.794;9.176;2023-02-12T09:47:14;100284.22;;;9.71;67.23
13767;BME280;47980;48.794;9.176;2023-02-12T09:50:04;100284.16;;;9.30;67.72
13767;BME280;47980;48.794;9.176;2023-02-12T09:52:40;100290.13;;;9.00;67.95
13767;BME280;47980;48.794;9.176;2023-02-12T09:55:14;100289.22;;;9.42;68.00
13767;BME280;47980;48.794;9.176;2023-02-12T09:57:47;100288.72;;;9.81;66.09
13767;BME280;47980;48.794;9.176;2023-02-12T10:00:24;100295.78;;;9.29;68.48
13767;BME280;47980;48.794;9.176;2023-02-12T10:03:00;100291.09;;;9.67;67.53
13767;BME280;47980;48.794;9.176;2023-02-12T10:05:36;100285.47;;;9.33;67.74
13767;BME280;47980;48.794;9.176;2023-02-12T10:08:31;100288.13;;;9.33;70.09
13767;BME280;47980;48.794;9.176;2023-02-12T10:11:27;100288.47;;;9.77;69.40
13767;BME280;47980;48.794;9.176;2023-02-12T10:14:12;100295.03;;;9.39;69.63
13767;BME280;47980;48.794;9.176;2023-02-12T10:16:54;100285.78;;;9.57;68.88
13767;BME280;47980;48.794;9.176;2023-02-12T10:19:49;100289.50;;;9.61;69.84
13767;BME280;47980;48.794;9.176;2023-02-12T10:22:29;100290.06;;;9.88;68.19
13767;BME280;47980;48.794;9.176;2023-02-12T10:25:16;100291.06;;;9.47;71.04
13767;BME280;47980;48.794;9.176;2023-02-12T10:27:53;100291.63;;;9.95;67.99
13767;BME280;47980;48.794;9.176;2023-02-12T10:30:33;100290.31;;;9.97;69.35
13767;BME280;47980;48.794;9.176;2023-02-12T10:33:12;100288.72;;;10.32;66.02
13767;BME280;47980;48.794;9.176;2023-02-12T10:35:48;100285.28;;;9.85;69.08
13767;BME280;47980;48.794;9.176;2023-02-12T10:38:24;100288.72;;;10.11;68.55
13767;BME280;47980;48.794;9.176;2023-02-12T10:40:58;100287.38;;;9.83;68.88
13767;BME280;47980;48.794;9.176;2023-02-12T10:43:31;100282.63;;;10.01;70.01
13767;BME280;47980;48.794;9.176;2023-02-12T10:46:04;100279.69;;;10.43;67.43
13767;BME280;47980;48.794;9.176;2023-02-12T10:48:37;100283.41;;;10.37;67.23
13767;BME280;47980;48.794;9.176;2023-02-12T10:51:19;100280.75;;;10.22;68.12
13767;BME280;47980;48.794;9.176;2023-02-12T10:54:33;100274.69;;;10.31;67.77
13767;BME280;47980;48.794;9.176;2023-02-12T10:57:11;100279.63;;;10.69;67.22
13767;BME280;47980;48.794;9.176;2023-02-12T10:59:45;100266.34;;;10.64;66.72
13767;BME280;47980;48.794;9.176;2023-02-12T11:02:22;100263.78;;;10.33;67.59
13767;BME280;47980;48.794;9.176;2023-02-12T11:04:55;100262.66;;;10.49;68.19
13767;BME280;47980;48.794;9.176;2023-02-12T11:07:27;100265.66;;;9.71;69.97
13767;BME280;47980;48.794;9.176;2023-02-12T11:09:59;100259.03;;;9.94;69.23
13767;BME280;47980;48.794;9.176;2023-02-12T11:12:33;100261.69;;;10.04;69.63
13767;BME280;47980;48.794;9.176;2023-02-12T11:15:13;100261.13;;;10.18;69.23
13767;BME280;47980;48.794;9.176;2023-02-12T11:17:56;100264.59;;;9.72;71.96
13767;BME280;47980;48.794;9.176;2023-02-12T11:20:32;100260.91;;;9.73;71.98
13767;BME280;47980;48.794;9.176;2023-02-12T11:23:06;100262.72;;;10.08;70.48
13767;BME280;47980;48.794;9.176;2023-02-12T11:25:56;100256.41;;;9.74;71.18
13767;BME280;47980;48.794;9.176;2023-02-12T11:28:29;100255.06;;;9.56;71.92
13767;BME280;47980;48.794;9.176;2023-02-12T11:31:02;100250.56;;;9.67;72.53
13767;BME280;47980;48.794;9.176;2023-02-12T11:33:35;100252.69;;;9.95;72.46
13767;BME280;47980;48.794;9.176;2023-02-12T11:36:14;100252.41;;;9.81;72.16
13767;BME280;47980;48.794;9.176;2023-02-12T11:38:52;100246.56;;;9.69;71.79
13767;BME280;47980;48.794;9.176;2023-02-12T11:41:29;100254.25;;;9.50;72.75
13767;BME280;47980;48.794;9.176;2023-02-12T11:44:09;100248.69;;;9.98;71.22
13767;BME280;47980;48.794;9.176;2023-02-12T11:46:45;100253.47;;;10.01;71.76
13767;BME280;47980;48.794;9.176;2023-02-12T11:49:22;100248.41;;;10.04;72.13
13767;BME280;47980;48.794;9.176;2023-02-12T11:51:55;100241.69;;;10.53;69.18
13767;BME280;47980;48.794;9.176;2023-02-12T11:54:31;100238.00;;;10.54;69.36
13767;BME280;47980;48.794;9.176;2023-02-12T11:57:04;100237.22;;;10.53;68.29
13767;BME280;47980;48.794;9.176;2023-02-12T11:59:40;100237.25;;;10.33;69.42
13767;BME280;47980;48.794;9.176;2023-02-12T12:02:26;100254.50;;;10.30;69.67
13767;BME280;47980;48.794;9.176;2023-02-12T12:05:05;100248.44;;;10.09;69.48
13767;BME280;47980;48.794;9.176;2023-02-12T12:07:41;100237.53;;;10.21;70.01
13767;BME280;47980;48.794;9.176;2023-02-12T12:10:20;100243.41;;;9.93;71.35
13767;BME280;47980;48.794;9.176;2023-02-12T12:12:57;100235.44;;;9.72;72.22
13767;BME280;47980;48.794;9.176;2023-02-12T12:15:33;100238.88;;;9.98;70.98
13767;BME280;47980;48.794;9.176;2023-02-12T12:18:25;100234.38;;;9.78;72.62
13767;BME280;47980;48.794;9.176;2023-02-12T12:21:25;100238.09;;;9.93;71.42
13767;BME280;47980;48.794;9.176;2023-02-12T12:24:01;100231.44;;;10.10;71.23
13767;BME280;47980;48.794;9.176;2023-02-12T12:26:34;100230.63;;;10.20;70.76
13767;BME280;47980;48.794;9.176;2023-02-12T12:29:12;100232.50;;;10.15;70.79
13767;BME280;47980;48.794;9.176;2023-02-12T12:31:48;100229.03;;;10.19;69.79
13767;BME280;47980;48.794;9.176;2023-02-12T12:34:23;100227.19;;;10.30;70.61
13767;BME280;47980;48.794;9.176;2023-02-12T12:37:13;100232.53;;;9.99;71.46
13767;BME280;47980;48.794;9.176;2023-02-12T12:40:01;100230.38;;;10.11;70.68
13767;BME280;47980;48.794;9.176;2023-02-12T12:46:25;100222.94;;;10.29;69.64
13767;BME280;47980;48.794;9.176;2023-02-12T12:49:16;100211.72;;;10.57;71.06
13767;BME280;47980;48.794;9.176;2023-02-12T12:52:05;100217.91;;;10.32;69.61
13767;BME280;47980;48.794;9.176;2023-02-12T12:54:52;100205.59;;;10.62;70.09
13767;BME280;47980;48.794;9.176;2023-02-12T12:57:36;100200.09;;;10.43;69.92
13767;BME280;47980;48.794;9.176;2023-02-12T13:00:22;100206.97;;;10.44;70.28
13767;BME280;47980;48.794;9.176;2023-02-12T13:03:19;100199.84;;;10.24;70.09
13767;BME280;47980;48.794;9.176;2023-02-12T13:06:20;100194.88;;;9.92;72.28
13767;BME280;47980;48.794;9.176;2023-02-12T13:09:14;100195.66;;;9.98;72.22
13767;BME280;47980;48.794;9.176;2023-02-12T13:12:01;100191.94;;;10.14;71.03
13767;BME280;47980;48.794;9.176;2023-02-12T13:14:42;100193.75;;;10.19;71.21
13767;BME280;47980;48.794;9.176;2023-02-12T13:17:21;100183.44;;;10.02;72.48
13767;BME280;47980;48.794;9.176;2023-02-12T13:20:02;100183.16;;;10.29;72.18
13767;BME280;47980;48.794;9.176;2023-02-12T13:22:41;100171.47;;;10.20;72.03
13767;BME280;47980;48.794;9.176;2023-02-12T13:25:21;100171.00;;;10.02;72.48
13767;BME280;47980;48.794;9.176;2023-02-12T13:27:55;100167.22;;;10.34;70.92
13767;BME280;47980;48.794;9.176;2023-02-12T13:30:29;100170.47;;;10.00;72.53
13767;BME280;47980;48.794;9.176;2023-02-12T13:33:06;100179.47;;;10.04;71.96
13767;BME280;47980;48.794;9.176;2023-02-12T13:35:44;100174.44;;;10.08;72.67
13767;BME280;47980;48.794;9.176;2023-02-12T13:38:20;100169.16;;;10.03;72.33
13767;BME280;47980;48.794;9.176;2023-02-12T13:40:58;100157.63;;;10.38;71.65
13767;BME280;47980;48.794;9.176;2023-02-12T13:43:41;100166.47;;;10.13;72.04
13767;BME280;47980;48.794;9.176;2023-02-12T13:46:22;100164.31;;;10.30;72.67
13767;BME280;47980;48.794;9.176;2023-02-12T13:49:02;100152.78;;;10.55;71.88